Latest Weather Observations for Khancoban

IDN60801

Issued at 2:04 pm EST Sunday 26 June 2016 (issued every 30 minutes, with the page automatically refreshed every 10 minutes)

About weather observations | Map of weather stations | Latest weather observations for NSW | Other Formats
Station Details ID: 072162 Name: KHANCOBAN AWS Lat: -36.23 Lon: 148.14 Height: 339.3 m
Data from the previous 72 hours. | See also: Recent months at Khancoban
Date/Time
EST
Temp
°C
App
Temp
°C
Dew
Point
°C
Rel
Hum
%
Delta-T
°C
Wind Press
QNH
hPa
Press
MSL
hPa
Rain since
9am
mm
Dir  Spd
km/h
Gust
km/h
Spd
kts
Gust
kts
26/02:00pm 5.1 3.5 4.4 95 0.3 NW 2 7 1 4 1018.8 1019.4 0.0
26/01:30pm 4.4 1.9 3.8 96 0.3 WNW 6 7 3 4 1019.2 1019.9 0.0
26/01:00pm 4.1 2.4 3.8 98 0.1 NW 2 6 1 3 1019.6 1020.3 0.0
26/12:30pm 3.8 0.7 3.7 99 0.0 NW 9 13 5 7 1020.0 1020.7 0.0
26/12:00pm 4.0 2.2 3.4 96 0.3 WNW 2 7 1 4 1020.3 1021.0 0.0
26/11:30am 3.2 1.0 3.1 99 0.0 NW 4 7 2 4 1021.3 1022.0 0.0
26/11:00am 2.3 0.7 2.2 99 0.0 CALM 0 4 0 2 1022.2 1022.9 0.0
26/10:30am 1.7 -0.4 1.7 100 0.0 ENE 2 7 1 4 1022.7 1023.4 0.0
26/10:00am 1.4 -0.4 1.4 100 0.0 CALM 0 4 0 2 1023.2 1023.9 0.0
26/09:30am 1.0 -2.0 1.0 100 0.0 E 6 9 3 5 1023.3 1024.0 0.0
26/09:00am 0.7 -1.9 0.7 100 0.0 NE 4 7 2 4 1022.9 1023.6 0.0
26/08:30am 0.4 -1.5 0.4 100 0.0 CALM 0 0 0 0 1022.9 1023.6 0.0
26/08:00am 0.2 -1.8 0.2 100 0.0 CALM 0 0 0 0 1022.8 1023.5 0.0
26/07:30am 0.1 -2.6 0.0 99 0.0 S 4 6 2 3 1022.5 1023.2 0.0
26/07:00am 0.2 -1.8 0.1 99 0.0 CALM 0 0 0 0 1022.5 1023.2 0.0
26/06:30am 0.1 -1.9 0.0 99 0.0 CALM 0 0 0 0 1022.4 1023.1 0.0
26/06:00am -0.2 -2.6 -0.3 99 0.0 S 2 6 1 3 1022.2 1022.9 0.0
26/05:30am -0.4 -3.2 -0.5 99 0.0 SSE 4 7 2 4 1022.1 1022.8 0.0
26/05:00am -0.2 -3.4 -0.3 99 0.0 SSE 6 9 3 5 1021.7 1022.4 0.0
26/04:30am -0.6 -3.1 -0.7 99 0.0 NW 2 11 1 6 1021.3 1022.0 0.0
26/04:00am -0.5 -3.3 -0.6 99 0.0 NNE 4 9 2 5 1021.5 1022.1 0.0
26/03:30am 0.2 -2.9 0.1 99 0.0 N 6 9 3 5 1021.8 1022.5 0.0
26/03:00am 0.2 -1.8 0.1 99 0.0 CALM 0 9 0 5 1022.5 1023.2 0.0
26/02:30am 0.2 -1.8 0.1 99 0.0 CALM 0 0 0 0 1022.8 1023.5 0.0
26/02:00am -0.1 -2.1 -0.2 99 0.0 CALM 0 0 0 0 1022.9 1023.6 0.0
26/01:30am -0.1 -3.3 -0.2 99 0.0 NNW 6 7 3 4 1022.4 1023.1 0.0
26/01:00am -0.5 -2.6 -0.6 99 0.0 CALM 0 0 0 0 1022.4 1023.1 0.0
26/12:30am 0.0 -2.0 -0.1 99 0.0 CALM 0 0 0 0 1022.1 1022.8 0.0
26/12:00am 0.2 -1.8 0.1 99 0.0 CALM 0 0 0 0 1021.8 1022.5 0.0
 
Date/Time
EST
Temp
°C
App
Temp
°C
Dew
Point
°C
Rel
Hum
%
Delta-T
°C
Wind Press
QNH
hPa
Press
MSL
hPa
Rain since
9am
mm
Dir  Spd
km/h
Gust
km/h
Spd
kts
Gust
kts
25/11:30pm 0.6 -1.3 0.5 99 0.0 CALM 0 0 0 0 1021.8 1022.5 0.0
25/11:00pm 0.8 -1.1 0.7 99 0.0 CALM 0 0 0 0 1022.1 1022.8 0.0
25/10:30pm 0.7 -1.2 0.6 99 0.0 CALM 0 0 0 0 1022.1 1022.8 0.0
25/10:00pm 1.1 -0.7 1.0 99 0.0 CALM 0 0 0 0 1022.0 1022.7 0.0
25/09:30pm 1.5 -0.3 1.1 97 0.2 CALM 0 0 0 0 1022.1 1022.8 0.0
25/09:00pm 1.8 0.0 1.2 96 0.2 CALM 0 0 0 0 1022.2 1022.9 0.0
25/08:30pm 2.5 0.8 1.6 94 0.4 CALM 0 0 0 0 1022.2 1022.9 0.0
25/08:00pm 2.9 1.3 2.2 95 0.3 CALM 0 0 0 0 1022.2 1022.9 0.0
25/07:30pm 3.1 1.5 2.4 95 0.3 CALM 0 0 0 0 1022.1 1022.8 0.0
25/07:00pm 3.5 1.9 2.5 93 0.4 CALM 0 0 0 0 1022.2 1022.9 0.0
25/06:30pm 3.6 1.9 2.1 90 0.6 CALM 0 0 0 0 1022.1 1022.8 0.0
25/06:00pm 3.5 1.4 1.7 88 0.7 NNW 2 7 1 4 1021.8 1022.5 0.0
25/05:30pm 4.8 3.2 2.3 84 1.0 CALM 0 0 0 0 1021.5 1022.1 0.0
25/05:00pm 5.6 3.6 2.4 80 1.3 WSW 2 9 1 5 1021.2 1021.9 0.0
25/04:30pm 7.7 5.5 3.4 74 1.9 NNW 4 7 2 4 1021.1 1021.8 0.0
25/04:00pm 8.1 6.4 2.1 66 2.5 CALM 0 0 0 0 1021.1 1021.8 0.0
25/03:30pm 8.1 6.5 2.6 68 2.4 CALM 0 0 0 0 1021.0 1021.7 0.0
25/03:00pm 8.1 5.8 2.6 68 2.3 W 4 9 2 5 1020.9 1021.6 0.0
25/02:30pm 8.1 6.1 2.4 67 2.4 SSE 2 11 1 6 1020.8 1021.5 0.0
25/02:00pm 7.8 5.5 2.5 69 2.2 SW 4 9 2 5 1020.8 1021.5 0.0
25/01:30pm 7.5 4.6 2.8 72 2.0 W 7 11 4 6 1021.0 1021.7 0.0
25/01:00pm 7.2 4.6 3.4 77 1.6 W 6 9 3 5 1021.2 1021.9 0.0
25/12:30pm 6.5 5.0 3.1 79 1.5 CALM 0 7 0 4 1021.7 1022.4 0.0
25/12:00pm 5.6 3.6 2.3 79 1.4 WNW 2 6 1 3 1022.1 1022.8 0.0
25/11:30am 5.4 3.8 2.6 82 1.2 CALM 0 0 0 0 1022.2 1022.9 0.0
25/11:00am 5.1 3.6 2.8 85 1.0 CALM 0 6 0 3 1022.3 1023.0 0.0
25/10:30am 4.3 2.3 2.5 88 0.7 NW 2 7 1 4 1022.4 1023.1 0.0
25/10:00am 3.6 2.0 2.7 94 0.4 CALM 0 0 0 0 1022.3 1023.0 0.0
25/09:30am 2.4 0.8 2.3 99 0.0 CALM 0 7 0 4 1021.9 1022.6 0.0
25/09:00am 1.6 -0.2 1.5 99 0.0 CALM 0 0 0 0 1021.6 1022.3 3.8
25/08:30am 1.4 -0.4 1.3 99 0.0 CALM 0 0 0 0 1021.2 1021.9 3.8
25/08:00am 0.8 -1.1 0.7 99 0.0 CALM 0 0 0 0 1020.8 1021.5 3.8
25/07:30am 0.8 -1.1 0.7 99 0.0 CALM 0 0 0 0 1020.5 1021.2 3.8
25/07:00am 1.1 -0.7 1.0 99 0.0 CALM 0 0 0 0 1020.2 1020.9 3.8
25/06:30am 1.6 -0.5 1.5 99 0.0 S 2 6 1 3 1019.8 1020.5 3.8
25/06:00am 1.7 -0.8 1.4 98 0.1 S 4 6 2 3 1019.4 1020.1 3.8
25/05:30am 1.9 -0.2 1.5 97 0.2 SW 2 7 1 4 1019.2 1019.9 3.8
25/05:00am 1.5 -1.1 0.9 96 0.2 WNW 4 7 2 4 1018.7 1019.3 3.8
25/04:30am 2.2 -0.7 1.3 94 0.4 N 6 7 3 4 1018.4 1019.0 3.8
25/04:00am 2.1 -1.0 1.4 95 0.3 N 7 11 4 6 1018.1 1018.8 3.8
25/03:30am 2.7 -0.4 1.1 89 0.6 NE 7 9 4 5 1017.6 1018.3 3.8
25/03:00am 1.7 -1.5 0.5 92 0.5 N 7 13 4 7 1017.5 1018.2 3.8
25/02:30am 2.3 0.1 1.1 92 0.5 N 2 6 1 3 1017.3 1018.0 3.8
25/02:00am 3.0 1.2 1.5 90 0.6 CALM 0 0 0 0 1017.1 1017.8 3.8
25/01:30am 3.4 1.6 1.3 86 0.8 CALM 0 0 0 0 1016.7 1017.4 3.8
25/01:00am 3.3 0.7 1.0 85 0.9 NNE 4 9 2 5 1016.1 1016.7 3.8
25/12:30am 4.3 1.8 1.8 84 1.0 WNW 4 6 2 3 1015.8 1016.4 3.8
25/12:00am 4.5 1.5 2.0 84 1.0 NNW 7 9 4 5 1015.7 1016.3 3.8
 
Date/Time
EST
Temp
°C
App
Temp
°C
Dew
Point
°C
Rel
Hum
%
Delta-T
°C
Wind Press
QNH
hPa
Press
MSL
hPa
Rain since
9am
mm
Dir  Spd
km/h
Gust
km/h
Spd
kts
Gust
kts
24/11:30pm 4.8 1.1 2.3 84 1.0 N 11 15 6 8 1015.0 1015.7 3.8
24/11:00pm 4.9 2.1 2.3 83 1.1 WNW 6 11 3 6 1014.8 1015.5 3.8
24/10:30pm 5.0 2.1 2.4 83 1.1 NNW 7 9 4 5 1014.3 1015.0 3.8
24/10:00pm 5.2 1.9 2.2 81 1.2 NNW 9 15 5 8 1014.0 1014.6 3.8
24/09:30pm 5.1 3.5 2.6 84 1.0 CALM 0 0 0 0 1013.9 1014.5 3.8
24/09:00pm 5.2 3.6 2.7 84 1.0 CALM 0 2 0 1 1013.3 1013.9 3.8
24/08:30pm 5.2 2.3 2.7 84 1.0 WNW 7 11 4 6 1012.7 1013.3 3.8
24/08:00pm 5.4 2.2 3.1 85 1.0 NNE 9 13 5 7 1012.2 1012.8 3.8
24/07:30pm 5.3 2.1 3.0 85 1.0 NNW 9 13 5 7 1011.7 1012.4 3.8
24/07:00pm 5.8 2.2 3.1 83 1.1 NE 11 17 6 9 1010.9 1011.5 3.8
24/06:30pm 5.3 1.8 3.5 88 0.8 NNW 11 17 6 9 1010.6 1011.2 3.8
24/06:00pm 5.7 2.2 3.5 86 0.9 NNW 11 17 6 9 1009.8 1010.4 3.8
24/05:30pm 5.8 2.4 3.8 87 0.9 NNW 11 22 6 12 1009.0 1009.5 3.8
24/05:00pm 6.2 1.6 3.7 84 1.1 NNW 17 22 9 12 1007.9 1008.5 3.6
24/04:30pm 6.2 2.4 3.9 85 1.0 NW 13 15 7 8 1007.3 1007.9 3.6
24/04:00pm 6.3 1.3 3.6 83 1.2 NNW 19 22 10 12 1006.7 1007.2 3.6
24/03:30pm 6.4 2.2 3.7 83 1.2 NW 15 20 8 11 1006.1 1006.6 3.6
24/03:00pm 6.5 1.3 3.8 83 1.2 NNW 20 32 11 17 1005.4 1006.0 3.6
24/02:30pm 6.9 4.2 5.4 90 0.7 NNW 9 17 5 9 1004.8 1005.4 3.4
24/02:00pm 6.5 3.7 5.1 91 0.6 NNW 9 15 5 8 1004.7 1005.3 3.4
24/01:30pm 6.4 1.9 4.4 87 0.9 N 17 22 9 12 1004.6 1005.2 3.0
24/01:00pm 6.8 2.9 5.4 91 0.6 N 15 20 8 11 1004.6 1005.2 3.0
24/12:30pm 6.5 2.8 4.7 88 0.8 N 13 17 7 9 1004.6 1005.2 2.6
24/12:00pm 6.8 5.3 4.8 87 0.9 NE 2 9 1 5 1004.7 1005.3 2.6
24/11:30am 6.6 2.6 4.9 89 0.8 NNW 15 22 8 12 1005.1 1005.7 2.6
24/11:00am 6.6 3.0 5.1 90 0.7 NNW 13 24 7 13 1004.8 1005.4 2.4
24/10:30am 6.3 2.4 5.3 93 0.4 NNW 15 24 8 13 1004.7 1005.3 1.8
24/10:00am 6.2 2.2 4.8 91 0.6 N 15 20 8 11 1004.5 1005.1 0.6
24/09:30am 6.1 1.1 4.6 90 0.7 N 20 30 11 16 1004.2 1004.7 0.4
24/09:00am 6.3 1.3 4.8 90 0.7 N 20 30 11 16 1003.5 1004.0 17.8
24/08:30am 6.3 1.3 4.5 88 0.8 NNE 20 26 11 14 1003.2 1003.7 17.8
24/08:00am 6.4 2.0 4.6 88 0.8 NNE 17 26 9 14 1003.0 1003.5 17.8
24/07:30am 6.0 1.6 4.5 90 0.7 N 17 24 9 13 1002.8 1003.3 17.8
24/07:00am 5.8 1.8 4.8 93 0.4 N 15 19 8 10 1002.9 1003.4 17.8
24/06:30am 5.8 2.2 4.9 94 0.4 N 13 17 7 9 1002.9 1003.4 17.8
24/06:00am 5.8 4.4 5.4 97 0.2 WNW 2 7 1 4 1002.9 1003.4 17.6
24/05:30am 5.8 4.0 5.4 97 0.2 NNE 4 7 2 4 1002.4 1003.0 17.4
24/05:00am 5.9 3.7 5.3 96 0.3 NW 6 7 3 4 1002.5 1003.1 17.2
24/04:30am 6.0 3.6 5.3 95 0.3 NW 7 9 4 5 1002.5 1003.1 17.0
24/04:00am 6.2 3.7 5.0 92 0.5 NNE 7 9 4 5 1002.4 1003.0 16.8
24/03:30am 6.7 2.7 5.0 89 0.8 NE 15 20 8 11 1002.0 1002.6 16.8
24/03:00am 6.4 2.2 5.5 94 0.4 NNE 17 24 9 13 1002.2 1002.8 16.4
24/02:30am 7.1 2.8 5.3 88 0.8 N 17 24 9 13 1002.0 1002.6 15.8
24/02:00am 6.8 2.6 5.6 92 0.5 NNW 17 24 9 13 1001.9 1002.5 15.8
24/01:37am 7.3 0.6 5.4 88 0.9 WNW 30 56 16 30 1001.5 1002.0 15.6
24/01:31am 7.4 -0.3 5.4 87 0.9 WNW 35 57 19 31 1001.2 1001.7 15.2
24/01:30am 7.5 -0.2 5.5 87 0.9 WNW 35 57 19 31 1001.4 1001.9 15.0
24/01:28am 7.4 0.0 5.2 86 1.0 NW 33 57 18 31 1001.3 1001.8 14.4
24/01:25am 8.6 2.9 6.7 88 0.9 NNW 26 56 14 30 1001.1 1001.6 13.6
24/01:00am 10.2 4.8 7.8 85 1.2 N 26 37 14 20 1000.5 1001.0 12.6
24/12:30am 9.9 6.3 8.2 89 0.8 N 17 30 9 16 1000.7 1001.2 12.6
24/12:00am 9.6 6.4 8.4 92 0.6 NNE 15 24 8 13 1001.5 1002.0 12.4
 
Date/Time
EST
Temp
°C
App
Temp
°C
Dew
Point
°C
Rel
Hum
%
Delta-T
°C
Wind Press
QNH
hPa
Press
MSL
hPa
Rain since
9am
mm
Dir  Spd
km/h
Gust
km/h
Spd
kts
Gust
kts
23/11:30pm 9.6 6.0 8.4 92 0.6 N 17 20 9 11 1002.3 1002.9 12.4
23/11:00pm 9.8 4.9 8.6 92 0.6 N 24 35 13 19 1002.1 1002.7 12.4
23/10:30pm 9.2 6.9 9.1 99 0.1 N 11 17 6 9 1002.3 1002.9 12.4
23/10:00pm 8.7 7.2 8.6 99 0.0 NE 6 9 3 5 1002.2 1002.8 12.0
23/09:30pm 9.0 7.4 8.9 99 0.0 NE 7 11 4 6 1002.8 1003.3 11.2
23/09:00pm 8.5 7.8 8.4 99 0.0 SW 2 9 1 5 1003.5 1004.0 9.2
23/08:30pm 8.3 6.6 8.2 99 0.0 S 7 9 4 5 1003.7 1004.2 6.4
23/08:00pm 8.5 7.7 8.1 97 0.2 N 2 7 1 4 1003.9 1004.4 3.2
23/07:30pm 8.5 7.6 7.9 96 0.3 NE 2 9 1 5 1003.9 1004.4 2.0
23/07:00pm 8.5 7.9 7.3 92 0.6 CALM 0 6 0 3 1004.2 1004.7 0.8
23/06:30pm 9.0 7.2 7.0 87 1.0 NNW 6 11 3 6 1004.3 1004.9 0.4
23/06:00pm 8.6 6.1 6.6 87 0.9 NW 9 13 5 7 1004.5 1005.1 0.2
23/05:30pm 9.1 5.8 6.2 82 1.4 N 13 17 7 9 1004.8 1005.4 0.2
23/05:00pm 9.8 5.2 5.8 76 1.9 N 19 30 10 16 1004.7 1005.3 0.2
23/04:30pm 10.3 5.2 5.9 74 2.1 N 22 32 12 17 1004.8 1005.4 0.2
23/04:00pm 10.1 5.0 6.1 76 1.9 NNE 22 37 12 20 1005.2 1005.8 0.2
23/03:30pm 10.2 5.9 7.1 81 1.5 N 19 30 10 16 1005.5 1006.1 0.2
23/03:00pm 10.2 5.8 6.5 78 1.8 NNE 19 26 10 14 1005.7 1006.3 0.2
23/02:30pm 10.2 5.0 7.1 81 1.5 N 24 33 13 18 1005.9 1006.4 0.2

Other Formats:

Comma delimited format used in spreadsheet applications
http://www.bom.gov.au/fwo/IDN60801/IDN60801.94919.axf

JavaScript Object Notation format (JSON) in row-major order
http://www.bom.gov.au/fwo/IDN60801/IDN60801.94919.json